createdAt,value
2018-01-30T00:00:38.963Z,0.70
2018-01-30T00:03:07.259Z,0.90
2018-01-30T00:05:36.934Z,0.97
2018-01-30T00:08:05.911Z,0.70
2018-01-30T00:10:34.230Z,0.90
2018-01-30T00:13:02.530Z,0.80
2018-01-30T00:15:30.860Z,0.83
2018-01-30T00:17:59.924Z,0.83
2018-01-30T00:20:28.215Z,0.80
2018-01-30T00:22:56.819Z,0.90
2018-01-30T00:25:25.114Z,0.90
2018-01-30T00:27:53.411Z,1.00
2018-01-30T00:30:22.479Z,1.00
2018-01-30T00:32:50.830Z,0.80
2018-01-30T00:35:19.527Z,1.00
2018-01-30T00:37:48.434Z,0.70
2018-01-30T00:40:16.735Z,0.97
2018-01-30T00:42:45.036Z,0.80
2018-01-30T00:45:14.035Z,0.80
2018-01-30T00:47:42.416Z,0.80
2018-01-30T00:50:10.735Z,0.80
2018-01-30T00:52:39.070Z,0.83
2018-01-30T00:55:07.367Z,0.80
2018-01-30T00:57:35.667Z,0.87
2018-01-30T01:00:04.023Z,0.80
2018-01-30T01:02:32.459Z,0.77
2018-01-30T01:05:00.755Z,0.90
2018-01-30T01:07:29.255Z,0.80
2018-01-30T01:09:57.815Z,0.77
2018-01-30T01:12:26.119Z,0.80
2018-01-30T01:14:54.595Z,0.80
2018-01-30T01:17:23.305Z,1.27
2018-01-30T01:19:52.186Z,1.10
2018-01-30T01:22:20.485Z,0.80
2018-01-30T01:24:49.750Z,0.80
2018-01-30T01:27:18.047Z,0.80
2018-01-30T01:29:47.114Z,0.70
2018-01-30T01:32:15.439Z,0.90
2018-01-30T01:34:43.749Z,0.80
2018-01-30T01:37:12.048Z,1.00
2018-01-30T01:39:40.740Z,0.80
2018-01-30T01:42:09.045Z,0.80
2018-01-30T01:44:37.366Z,0.80
2018-01-30T01:47:05.711Z,0.80
2018-01-30T01:49:34.016Z,0.90
2018-01-30T01:52:02.943Z,0.80
2018-01-30T01:54:31.434Z,0.73
2018-01-30T01:56:59.731Z,0.73
2018-01-30T01:59:28.031Z,1.40
2018-01-30T02:01:56.377Z,0.90
2018-01-30T02:04:26.228Z,1.10
2018-01-30T02:06:54.528Z,0.87
2018-01-30T02:09:22.871Z,1.27
2018-01-30T02:11:51.943Z,0.83
2018-01-30T02:14:21.021Z,0.80
2018-01-30T02:16:49.628Z,0.80
2018-01-30T02:19:18.075Z,0.97
2018-01-30T02:21:46.379Z,0.90
2018-01-30T02:24:14.735Z,0.80
2018-01-30T02:26:43.034Z,0.83
2018-01-30T02:29:12.450Z,0.83
2018-01-30T02:31:41.643Z,0.90
2018-01-30T02:34:10.708Z,0.80
2018-01-30T02:36:39.220Z,0.90
2018-01-30T02:39:08.287Z,0.90
2018-01-30T02:41:36.591Z,0.90
2018-01-30T02:44:05.954Z,0.80
2018-01-30T02:46:34.253Z,0.70
2018-01-30T02:49:03.234Z,1.73
2018-01-30T02:51:31.588Z,0.70
2018-01-30T02:54:00.163Z,0.90
2018-01-30T02:56:28.459Z,0.80
2018-01-30T02:58:56.804Z,0.90
2018-01-30T03:01:25.103Z,1.20
2018-01-30T03:03:53.419Z,0.77
2018-01-30T03:06:22.025Z,0.73
2018-01-30T03:08:50.314Z,0.93
2018-01-30T03:11:18.615Z,0.70
2018-01-30T03:13:46.959Z,0.90
2018-01-30T03:16:15.263Z,1.10
2018-01-30T03:18:43.807Z,0.90
2018-01-30T03:21:12.178Z,0.70
2018-01-30T03:23:40.501Z,0.90
2018-01-30T03:26:09.158Z,0.77
2018-01-30T03:28:37.505Z,0.80
2018-01-30T03:31:05.799Z,0.80
2018-01-30T03:33:34.854Z,0.87
2018-01-30T03:36:03.202Z,0.70
2018-01-30T03:38:31.508Z,1.00
2018-01-30T03:40:59.813Z,0.80
2018-01-30T03:43:28.499Z,0.70
2018-01-30T03:45:56.815Z,0.73
2018-01-30T03:48:25.467Z,1.00
2018-01-30T03:50:54.970Z,0.73
2018-01-30T03:53:23.447Z,0.77
2018-01-30T03:55:52.151Z,0.60
2018-01-30T03:58:20.452Z,0.87
2018-01-30T04:00:48.763Z,0.60
2018-01-30T04:03:17.119Z,0.70
2018-01-30T04:05:45.521Z,0.70
2018-01-30T04:08:13.835Z,0.70
2018-01-30T04:10:42.947Z,0.70
2018-01-30T04:13:11.948Z,0.93
2018-01-30T04:15:40.728Z,0.80
2018-01-30T04:18:09.332Z,0.60
2018-01-30T04:20:39.085Z,0.73
2018-01-30T04:23:07.695Z,0.70
2018-01-30T04:25:36.556Z,0.80
2018-01-30T04:28:04.880Z,1.00
2018-01-30T04:30:33.179Z,0.90
2018-01-30T04:33:02.368Z,0.70
2018-01-30T04:35:30.693Z,0.90
2018-01-30T04:37:59.294Z,1.10
2018-01-30T04:40:27.927Z,0.83
2018-01-30T04:42:56.225Z,0.80
2018-01-30T04:45:24.520Z,1.10
2018-01-30T04:47:53.223Z,1.37
2018-01-30T04:50:21.532Z,1.17
2018-01-30T04:52:49.836Z,0.80
2018-01-30T04:55:18.199Z,0.87
2018-01-30T04:57:47.160Z,0.90
2018-01-30T05:00:15.478Z,1.20
2018-01-30T05:02:44.004Z,1.07
2018-01-30T05:05:12.299Z,1.00
2018-01-30T05:07:40.611Z,0.80
2018-01-30T05:10:09.239Z,0.80
2018-01-30T05:12:38.007Z,1.03
2018-01-30T05:15:06.315Z,1.10
2018-01-30T05:17:35.423Z,2.43
2018-01-30T05:20:03.723Z,1.30
2018-01-30T05:22:32.056Z,1.33
2018-01-30T05:25:00.643Z,5.83
2018-01-30T05:27:30.431Z,1.37
2018-01-30T05:29:59.220Z,1.10
2018-01-30T05:32:27.587Z,1.70
2018-01-30T05:34:55.883Z,1.30
2018-01-30T05:37:24.188Z,1.63
2018-01-30T05:39:52.557Z,1.20
2018-01-30T05:42:21.632Z,1.60
2018-01-30T05:44:49.936Z,1.47
2018-01-30T05:47:20.379Z,1.70
2018-01-30T05:49:48.717Z,1.40
2018-01-30T05:52:17.010Z,2.13
2018-01-30T05:54:45.353Z,1.67
2018-01-30T05:57:14.363Z,1.97
2018-01-30T05:59:42.667Z,1.43
2018-01-30T06:02:12.039Z,2.07
2018-01-30T06:04:40.353Z,1.80
2018-01-30T06:07:09.108Z,1.90
2018-01-30T06:09:37.928Z,3.10
2018-01-30T06:12:06.620Z,2.90
2018-01-30T06:14:34.925Z,3.57
2018-01-30T06:17:03.551Z,3.90
2018-01-30T06:19:31.856Z,4.03
2018-01-30T06:22:00.207Z,4.70
2018-01-30T06:24:30.116Z,3.77
2018-01-30T06:26:58.423Z,4.60
2018-01-30T06:29:27.520Z,3.83
2018-01-30T06:31:56.584Z,3.63
2018-01-30T06:34:24.939Z,5.30
2018-01-30T06:36:53.251Z,5.93
2018-01-30T06:39:21.552Z,5.20
2018-01-30T06:41:49.907Z,5.67
2018-01-30T06:44:19.163Z,6.87
2018-01-30T06:46:47.480Z,6.57
2018-01-30T06:49:15.775Z,5.40
2018-01-30T06:51:44.893Z,6.10
2018-01-30T06:54:13.228Z,6.10
2018-01-30T06:56:41.591Z,6.10
2018-01-30T06:59:09.944Z,6.43
2018-01-30T07:01:38.245Z,6.20
2018-01-30T07:04:06.560Z,6.57
2018-01-30T07:06:34.932Z,6.63
2018-01-30T07:09:04.036Z,6.27
2018-01-30T07:11:33.627Z,5.57
2018-01-30T07:14:01.985Z,7.63
2018-01-30T07:16:30.311Z,7.50
2018-01-30T07:18:58.912Z,6.27
2018-01-30T07:21:27.217Z,7.43
2018-01-30T07:23:55.517Z,6.70
2018-01-30T07:26:23.872Z,6.87
2018-01-30T07:28:52.183Z,6.70
2018-01-30T07:31:20.493Z,8.00
2018-01-30T07:33:49.352Z,6.67
2018-01-30T07:36:17.759Z,7.27
2018-01-30T07:38:46.062Z,6.73
2018-01-30T07:41:14.681Z,8.43
2018-01-30T07:43:42.995Z,6.50
2018-01-30T07:46:11.309Z,8.00
2018-01-30T07:48:39.667Z,7.37
2018-01-30T07:51:08.295Z,8.03
2018-01-30T07:53:37.375Z,7.17
2018-01-30T07:56:05.715Z,6.90
2018-01-30T07:58:34.011Z,6.97
2018-01-30T08:01:02.364Z,7.70
2018-01-30T08:03:30.963Z,8.13
2018-01-30T08:05:59.293Z,8.00
2018-01-30T08:08:27.615Z,7.60
2018-01-30T08:10:55.960Z,8.60
2018-01-30T08:13:24.310Z,8.13
2018-01-30T08:15:52.641Z,9.00
2018-01-30T08:18:20.949Z,7.20
2018-01-30T08:20:49.106Z,8.07
2018-01-30T08:23:17.411Z,7.83
2018-01-30T08:25:45.714Z,7.43
2018-01-30T08:28:14.065Z,10.00
2018-01-30T08:30:42.395Z,9.17
2018-01-30T08:33:11.746Z,9.30
2018-01-30T08:35:40.091Z,9.83
2018-01-30T08:38:08.400Z,8.60
2018-01-30T08:40:37.061Z,9.70
2018-01-30T08:43:07.239Z,10.10
2018-01-30T08:45:36.052Z,9.27
2018-01-30T08:48:04.375Z,11.10
2018-01-30T08:50:33.491Z,9.27
2018-01-30T08:53:01.824Z,10.13
2018-01-30T08:55:30.127Z,11.50
2018-01-30T08:57:58.484Z,10.70
2018-01-30T09:00:27.571Z,11.50
2018-01-30T09:02:55.880Z,13.83
2018-01-30T09:05:24.362Z,10.70
2018-01-30T09:07:52.667Z,13.90
2018-01-30T09:10:20.986Z,12.37
2018-01-30T09:12:49.612Z,10.90
2018-01-30T09:15:17.915Z,10.77
2018-01-30T09:17:46.224Z,8.70
2018-01-30T09:20:14.580Z,11.13
2018-01-30T09:22:42.888Z,10.20
2018-01-30T09:25:11.204Z,11.63
2018-01-30T09:27:39.547Z,10.30
2018-01-30T09:30:07.859Z,10.17
2018-01-30T09:32:36.163Z,10.37
2018-01-30T09:35:05.752Z,9.30
2018-01-30T09:40:08.596Z,9.17
2018-01-30T09:42:37.432Z,9.07
2018-01-30T09:45:05.494Z,7.80
2018-01-30T09:47:33.844Z,7.90
2018-01-30T09:50:02.157Z,8.20
2018-01-30T09:52:30.646Z,9.80
2018-01-30T09:54:59.399Z,8.50
2018-01-30T09:57:27.707Z,7.70
2018-01-30T09:59:56.304Z,7.27
2018-01-30T10:02:25.188Z,8.13
2018-01-30T10:04:53.696Z,9.00
2018-01-30T10:07:22.004Z,7.47
2018-01-30T10:09:50.734Z,7.00
2018-01-30T10:12:19.051Z,7.97
2018-01-30T10:14:47.425Z,8.03
2018-01-30T10:17:16.436Z,7.77
2018-01-30T10:19:44.737Z,8.27
2018-01-30T10:22:13.045Z,6.60
2018-01-30T10:24:41.404Z,6.57
2018-01-30T10:27:09.740Z,7.20
2018-01-30T10:29:38.772Z,8.30
2018-01-30T10:32:07.123Z,7.10
2018-01-30T10:34:35.428Z,7.80
2018-01-30T10:37:03.752Z,7.60
2018-01-30T10:39:32.107Z,8.07
2018-01-30T10:42:01.196Z,7.20
2018-01-30T10:44:29.508Z,6.23
2018-01-30T10:46:58.161Z,8.37
2018-01-30T10:49:26.529Z,6.80
2018-01-30T10:51:54.830Z,5.97
2018-01-30T10:54:23.356Z,7.00
2018-01-30T10:56:52.041Z,6.40
2018-01-30T10:59:20.350Z,6.93
2018-01-30T11:01:48.724Z,7.67
2018-01-30T11:04:17.059Z,7.20
2018-01-30T11:06:45.365Z,5.80
2018-01-30T11:09:13.511Z,6.37
2018-01-30T11:11:41.823Z,6.93
2018-01-30T11:14:10.164Z,6.63
2018-01-30T11:16:38.515Z,7.80
2018-01-30T11:19:07.596Z,7.73
2018-01-30T11:21:35.907Z,7.57
2018-01-30T11:24:04.256Z,8.00
2018-01-30T11:26:32.572Z,6.87
2018-01-30T11:29:00.892Z,8.03
2018-01-30T11:31:29.504Z,6.33
2018-01-30T11:33:57.849Z,8.17
2018-01-30T11:36:26.159Z,8.33
2018-01-30T11:38:54.531Z,9.03
2018-01-30T11:41:22.859Z,9.60
2018-01-30T11:43:51.183Z,10.87
2018-01-30T11:46:20.658Z,10.70
2018-01-30T11:48:49.158Z,9.37
2018-01-30T11:51:17.539Z,8.63
2018-01-30T11:53:45.996Z,11.20
2018-01-30T11:56:14.319Z,8.57
2018-01-30T11:58:42.627Z,9.13
2018-01-30T12:01:11.007Z,10.60
2018-01-30T12:03:39.319Z,10.03
2018-01-30T12:06:07.639Z,9.77
2018-01-30T12:08:36.312Z,9.27
2018-01-30T12:11:04.634Z,10.83
2018-01-30T12:13:33.206Z,9.60
2018-01-30T12:16:02.539Z,8.93
2018-01-30T12:18:30.843Z,10.27
2018-01-30T12:20:59.220Z,10.27
2018-01-30T12:23:28.420Z,11.90
2018-01-30T12:25:56.731Z,10.43
2018-01-30T12:28:25.038Z,9.70
2018-01-30T12:30:54.102Z,9.90
2018-01-30T12:33:22.390Z,11.40
2018-01-30T12:35:50.692Z,10.97
2018-01-30T12:38:19.472Z,10.73
2018-01-30T12:40:47.979Z,10.53
2018-01-30T12:43:16.391Z,9.27
2018-01-30T12:45:44.744Z,11.20
2018-01-30T12:48:13.051Z,9.87
2018-01-30T12:50:42.199Z,9.60
2018-01-30T12:53:10.953Z,19.87
2018-01-30T12:55:39.272Z,10.60
2018-01-30T12:58:07.575Z,8.83
2018-01-30T13:00:35.940Z,9.03
2018-01-30T13:03:04.251Z,9.37
2018-01-30T13:05:33.135Z,9.93
2018-01-30T13:08:01.504Z,10.30
2018-01-30T13:10:29.882Z,10.37
2018-01-30T13:12:58.949Z,10.37
2018-01-30T13:15:27.263Z,11.50
2018-01-30T13:17:55.619Z,11.33
2018-01-30T13:20:24.379Z,11.17
2018-01-30T13:22:53.720Z,10.57
2018-01-30T13:25:22.120Z,10.73
2018-01-30T13:27:51.233Z,12.40
2018-01-30T13:30:20.209Z,9.20
2018-01-30T13:32:48.585Z,11.20
2018-01-30T13:35:17.656Z,11.57
2018-01-30T13:37:46.417Z,12.77
2018-01-30T13:40:14.727Z,13.43
2018-01-30T13:42:43.827Z,12.13
2018-01-30T13:45:12.919Z,22.17
2018-01-30T13:47:41.715Z,15.40
2018-01-30T13:50:10.186Z,15.33
2018-01-30T13:52:39.128Z,16.20
2018-01-30T13:55:07.427Z,13.00
2018-01-30T13:57:35.779Z,16.20
2018-01-30T14:00:04.080Z,11.30
2018-01-30T14:02:32.398Z,15.80
2018-01-30T14:05:00.743Z,13.77
2018-01-30T14:07:29.047Z,14.37
2018-01-30T14:09:58.119Z,14.33
2018-01-30T14:12:27.240Z,13.10
2018-01-30T14:14:55.547Z,12.80
2018-01-30T14:17:23.855Z,14.53
2018-01-30T14:19:52.220Z,15.03
2018-01-30T14:22:20.536Z,12.43
2018-01-30T14:24:48.836Z,13.83
2018-01-30T14:27:17.488Z,14.00
2018-01-30T14:29:45.800Z,13.37
2018-01-30T14:32:14.108Z,15.20
2018-01-30T14:34:42.253Z,14.60
2018-01-30T14:37:10.555Z,14.80
2018-01-30T14:39:38.876Z,14.10
2018-01-30T14:42:07.879Z,16.20
2018-01-30T14:44:36.203Z,14.77
2018-01-30T14:47:04.504Z,14.30
2018-01-30T14:49:32.882Z,14.40
2018-01-30T14:52:01.191Z,15.90
2018-01-30T14:54:29.503Z,15.13
2018-01-30T14:56:58.569Z,18.23
2018-01-30T14:59:26.931Z,16.83
2018-01-30T15:01:55.267Z,16.60
2018-01-30T15:04:23.902Z,21.73
2018-01-30T15:06:52.423Z,23.77
2018-01-30T15:09:20.727Z,20.33
2018-01-30T15:11:49.081Z,19.17
2018-01-30T15:14:17.467Z,20.93
2018-01-30T15:16:46.048Z,15.77
2018-01-30T15:19:14.640Z,15.63
2018-01-30T15:21:43.036Z,19.23
2018-01-30T15:24:12.663Z,17.93
2018-01-30T15:26:41.440Z,15.87
2018-01-30T15:29:09.903Z,8.50
2018-01-30T15:31:38.255Z,10.53
2018-01-30T15:34:07.371Z,10.40
2018-01-30T15:36:35.688Z,10.90
2018-01-30T15:39:04.004Z,12.20
2018-01-30T15:41:32.504Z,10.20
2018-01-30T15:44:00.834Z,10.93
2018-01-30T15:46:30.340Z,10.97
2018-01-30T15:48:58.674Z,7.60
2018-01-30T15:51:26.984Z,9.50
2018-01-30T15:53:55.344Z,13.27
2018-01-30T15:56:23.663Z,12.20
2018-01-30T15:58:52.741Z,12.60
2018-01-30T16:01:21.091Z,10.50
2018-01-30T16:03:50.015Z,13.10
2018-01-30T16:06:18.351Z,13.20
2018-01-30T16:08:46.728Z,12.17
2018-01-30T16:11:15.084Z,12.13
2018-01-30T16:13:43.394Z,14.93
2018-01-30T16:16:11.696Z,13.47
2018-01-30T16:18:40.048Z,14.20
2018-01-30T16:21:08.351Z,15.50
2018-01-30T16:23:36.660Z,16.43
2018-01-30T16:26:05.037Z,19.80
2018-01-30T16:28:33.356Z,19.20
2018-01-30T16:31:01.668Z,16.30
2018-01-30T16:33:30.059Z,15.80
2018-01-30T16:35:58.376Z,15.10
2018-01-30T16:38:26.634Z,15.73
2018-01-30T16:40:55.760Z,17.50
2018-01-30T16:43:24.096Z,20.23
2018-01-30T16:45:52.405Z,20.10
2018-01-30T16:48:20.744Z,19.63
2018-01-30T16:50:49.070Z,19.13
2018-01-30T16:53:17.458Z,17.77
2018-01-30T16:55:45.768Z,16.30
2018-01-30T16:58:14.691Z,15.27
2018-01-30T17:00:43.111Z,16.47
2018-01-30T17:03:11.460Z,16.57
2018-01-30T17:05:39.819Z,19.40
2018-01-30T17:08:08.467Z,17.67
2018-01-30T17:10:36.843Z,19.23
2018-01-30T17:13:05.467Z,23.37
2018-01-30T17:15:33.819Z,23.67
2018-01-30T17:18:02.948Z,25.97
2018-01-30T17:20:31.359Z,26.13
2018-01-30T17:22:59.659Z,25.70
2018-01-30T17:25:28.600Z,27.20
2018-01-30T17:27:57.236Z,26.80
2018-01-30T17:30:25.560Z,24.77
2018-01-30T17:32:53.883Z,27.90
2018-01-30T17:35:22.283Z,28.17
2018-01-30T17:37:51.379Z,27.90
2018-01-30T17:40:19.764Z,29.57
2018-01-30T17:42:48.815Z,25.77
2018-01-30T17:45:17.147Z,30.33
2018-01-30T17:47:45.464Z,26.87
2018-01-30T17:50:13.835Z,27.30
2018-01-30T17:52:42.136Z,33.07
2018-01-30T17:55:10.615Z,30.50
2018-01-30T17:57:39.335Z,29.90
2018-01-30T18:00:07.643Z,30.53
2018-01-30T18:02:36.578Z,28.57
2018-01-30T18:05:05.622Z,29.10
2018-01-30T18:07:33.970Z,29.10
2018-01-30T18:10:02.276Z,31.33
2018-01-30T18:12:30.669Z,33.07
2018-01-30T18:14:58.980Z,29.80
2018-01-30T18:17:27.283Z,34.03
2018-01-30T18:19:55.639Z,33.67
2018-01-30T18:22:23.959Z,31.90
2018-01-30T18:24:52.317Z,34.83
2018-01-30T18:27:20.688Z,35.93
2018-01-30T18:29:49.119Z,35.17
2018-01-30T18:32:17.502Z,34.53
2018-01-30T18:34:46.163Z,37.70
2018-01-30T18:37:14.524Z,37.30
2018-01-30T18:39:42.839Z,38.43
2018-01-30T18:42:11.260Z,38.87
2018-01-30T18:44:39.755Z,39.37
2018-01-30T18:47:08.122Z,36.23
2018-01-30T18:49:36.491Z,36.60
2018-01-30T18:52:04.792Z,34.47
2018-01-30T18:54:33.145Z,39.10
2018-01-30T18:57:01.616Z,42.40
2018-01-30T18:59:30.935Z,37.20
2018-01-30T19:01:59.034Z,33.07
2018-01-30T19:04:27.825Z,32.97
2018-01-30T19:06:58.344Z,34.63
2018-01-30T19:09:26.668Z,33.60
2018-01-30T19:11:54.980Z,36.17
2018-01-30T19:14:23.335Z,34.40
2018-01-30T19:16:52.270Z,32.33
2018-01-30T19:19:20.780Z,46.27
2018-01-30T19:21:49.395Z,36.00
2018-01-30T19:24:17.762Z,33.33
2018-01-30T19:26:46.078Z,33.27
2018-01-30T19:29:14.583Z,33.00
2018-01-30T19:31:42.898Z,34.33
2018-01-30T19:34:12.559Z,31.50
2018-01-30T19:36:40.987Z,32.80
2018-01-30T19:39:09.386Z,33.10
2018-01-30T19:41:37.741Z,32.60
2018-01-30T19:44:06.095Z,34.57
2018-01-30T19:46:34.930Z,30.20
2018-01-30T19:49:03.133Z,32.70
2018-01-30T19:51:31.652Z,31.80
2018-01-30T19:53:59.838Z,34.43
2018-01-30T19:56:28.927Z,30.07
2018-01-30T19:58:57.287Z,30.17
2018-01-30T20:01:26.443Z,30.03
2018-01-30T20:03:54.747Z,30.40
2018-01-30T20:06:23.427Z,28.10
2018-01-30T20:08:56.641Z,27.17
2018-01-30T20:11:27.052Z,30.23
2018-01-30T20:13:56.670Z,25.77
2018-01-30T20:16:25.027Z,27.80
2018-01-30T20:18:53.370Z,27.60
2018-01-30T20:21:22.289Z,25.77
2018-01-30T20:23:52.164Z,25.63
2018-01-30T20:26:21.011Z,27.87
2018-01-30T20:28:49.332Z,25.30
2018-01-30T20:31:17.738Z,28.13
2018-01-30T20:33:46.044Z,26.43
2018-01-30T20:36:14.278Z,29.60
2018-01-30T20:38:44.135Z,31.70
2018-01-30T20:41:13.179Z,25.87
2018-01-30T20:43:41.585Z,29.93
2018-01-30T20:46:09.943Z,24.57
2018-01-30T20:48:38.251Z,26.77
2018-01-30T20:51:06.935Z,27.77
2018-01-30T20:53:35.354Z,25.23
2018-01-30T20:56:04.978Z,26.67
2018-01-30T20:58:33.604Z,27.57
2018-01-30T21:01:01.920Z,27.80
2018-01-30T21:03:30.287Z,27.87
2018-01-30T21:05:59.326Z,29.43
2018-01-30T21:08:27.648Z,27.70
2018-01-30T21:10:56.515Z,28.63
2018-01-30T21:13:24.884Z,25.70
2018-01-30T21:15:54.060Z,28.13
2018-01-30T21:18:23.095Z,25.90
2018-01-30T21:20:51.436Z,22.67
2018-01-30T21:23:19.799Z,26.03
2018-01-30T21:25:48.207Z,26.57
2018-01-30T21:28:16.564Z,28.40
2018-01-30T21:30:45.056Z,24.37
2018-01-30T21:33:13.332Z,28.90
2018-01-30T21:35:41.776Z,27.80
2018-01-30T21:38:11.324Z,29.03
2018-01-30T21:40:40.303Z,31.00
2018-01-30T21:43:08.608Z,30.37
2018-01-30T21:45:37.323Z,30.67
2018-01-30T21:48:07.023Z,33.97
2018-01-30T21:50:36.577Z,31.40
2018-01-30T21:53:05.042Z,31.07
2018-01-30T21:55:35.301Z,31.20
2018-01-30T21:58:04.499Z,30.67
2018-01-30T22:00:34.100Z,29.83
2018-01-30T22:03:02.847Z,27.83
2018-01-30T22:05:31.959Z,31.73
2018-01-30T22:08:01.039Z,28.23
2018-01-30T22:10:29.392Z,25.37
2018-01-30T22:12:57.706Z,22.30
2018-01-30T22:15:26.110Z,19.97
2018-01-30T22:17:56.417Z,18.77
2018-01-30T22:20:24.647Z,16.87
2018-01-30T22:22:53.243Z,16.17
2018-01-30T22:25:21.424Z,16.20
2018-01-30T22:27:50.502Z,14.43
2018-01-30T22:30:18.902Z,15.40
2018-01-30T22:32:47.862Z,18.10
2018-01-30T22:35:17.079Z,15.07
2018-01-30T22:37:45.383Z,17.00
2018-01-30T22:40:13.867Z,15.80
2018-01-30T22:42:42.179Z,18.97
2018-01-30T22:45:10.491Z,18.03
